createdAt,value
2019-04-20T00:02:13.747Z,10.40
2019-04-20T00:04:37.004Z,9.78
2019-04-20T00:07:06.074Z,10.10
2019-04-20T00:09:38.400Z,9.80
2019-04-20T00:12:12.737Z,10.40
2019-04-20T00:14:37.175Z,9.90
2019-04-20T00:17:05.549Z,10.03
2019-04-20T00:19:40.780Z,10.33
2019-04-20T00:22:13.265Z,10.77
2019-04-20T00:24:42.300Z,10.53
2019-04-20T00:27:31.396Z,10.93
2019-04-20T00:29:58.746Z,10.37
2019-04-20T00:32:21.000Z,10.40
2019-04-20T00:34:45.328Z,10.93
2019-04-20T00:37:12.892Z,10.73
2019-04-20T00:39:42.644Z,9.77
2019-04-20T00:42:14.496Z,10.08
2019-04-20T00:44:45.844Z,10.40
2019-04-20T00:47:27.485Z,10.37
2019-04-20T00:49:56.614Z,10.60
2019-04-20T00:52:44.815Z,10.05
2019-04-20T00:54:43.594Z,9.97
2019-04-20T00:57:22.256Z,10.40
2019-04-20T01:00:04.623Z,9.83
2019-04-20T01:02:27.536Z,9.60
2019-04-20T01:04:57.878Z,9.20
2019-04-20T01:07:27.370Z,9.70
2019-04-20T01:10:02.982Z,9.50
2019-04-20T01:12:34.931Z,10.00
2019-04-20T01:15:05.761Z,9.53
2019-04-20T01:17:32.162Z,9.30
2019-04-20T01:20:00.714Z,9.20
2019-04-20T01:22:35.262Z,9.40
2019-04-20T01:25:06.891Z,9.20
2019-04-20T01:27:42.150Z,8.53
2019-04-20T01:30:09.945Z,9.25
2019-04-20T01:32:45.462Z,9.00
2019-04-20T01:35:18.100Z,9.03
2019-04-20T01:37:45.497Z,8.50
2019-04-20T01:40:04.542Z,9.17
2019-04-20T01:42:32.077Z,8.97
2019-04-20T01:45:05.646Z,9.53
2019-04-20T01:47:39.745Z,8.93
2019-04-20T01:50:08.512Z,9.37
2019-04-20T01:52:47.024Z,9.53
2019-04-20T01:55:34.655Z,8.70
2019-04-20T01:58:12.402Z,9.30
2019-04-20T02:00:35.656Z,9.28
2019-04-20T02:03:08.615Z,9.13
2019-04-20T02:05:39.042Z,9.30
2019-04-20T02:08:12.834Z,10.33
2019-04-20T02:10:46.800Z,9.80
2019-04-20T02:13:09.773Z,9.57
2019-04-20T02:15:45.107Z,9.80
2019-04-20T02:18:22.760Z,10.40
2019-04-20T02:21:01.400Z,9.83
2019-04-20T02:23:23.800Z,9.30
2019-04-20T02:25:41.812Z,9.50
2019-04-20T02:28:27.175Z,8.80
2019-04-20T02:31:25.143Z,9.00
2019-04-20T02:36:33.770Z,8.40
2019-04-20T02:39:32.993Z,8.13
2019-04-20T02:42:00.012Z,7.73
2019-04-20T02:44:36.524Z,7.53
2019-04-20T02:49:33.683Z,7.83
2019-04-20T02:51:48.370Z,7.80
2019-04-20T02:54:25.977Z,7.70
2019-04-20T02:57:03.393Z,6.83
2019-04-20T03:01:36.844Z,7.70
2019-04-20T03:03:52.646Z,7.33
2019-04-20T03:06:30.746Z,6.80
2019-04-20T03:09:09.701Z,7.80
2019-04-20T03:11:48.292Z,6.93
2019-04-20T03:14:10.582Z,7.43
2019-04-20T03:16:37.241Z,6.63
2019-04-20T03:19:02.950Z,7.87
2019-04-20T03:21:45.377Z,6.80
2019-04-20T03:24:20.463Z,7.28
2019-04-20T03:26:41.974Z,6.70
2019-04-20T03:29:12.998Z,6.23
2019-04-20T03:34:47.521Z,6.95
2019-04-20T03:37:04.695Z,6.30
2019-04-20T03:39:27.708Z,6.30
2019-04-20T03:41:38.476Z,6.37
2019-04-20T03:44:08.805Z,6.78
2019-04-20T03:46:44.650Z,6.10
2019-04-20T03:49:35.227Z,6.60
2019-04-20T03:51:57.318Z,6.13
2019-04-20T03:54:19.967Z,6.33
2019-04-20T03:57:07.364Z,7.30
2019-04-20T03:59:39.336Z,6.57
2019-04-20T04:02:38.868Z,6.30
2019-04-20T04:04:59.083Z,7.37
2019-04-20T04:07:21.455Z,6.77
2019-04-20T04:10:00.821Z,6.83
2019-04-20T04:12:49.856Z,7.60
2019-04-20T04:15:18.986Z,7.70
2019-04-20T04:17:48.671Z,7.92
2019-04-20T04:20:20.939Z,7.63
2019-04-20T04:23:08.257Z,7.67
2019-04-20T04:25:28.768Z,7.70
2019-04-20T04:28:09.491Z,8.80
2019-04-20T04:30:35.457Z,8.37
2019-04-20T04:33:37.906Z,6.77
2019-04-20T04:35:30.264Z,6.90
2019-04-20T04:38:09.433Z,6.78
2019-04-20T04:40:53.655Z,6.93
2019-04-20T04:43:10.379Z,7.20
2019-04-20T04:45:25.321Z,6.27
2019-04-20T04:47:51.454Z,6.40
2019-04-20T04:50:24.827Z,6.77
2019-04-20T04:52:59.707Z,7.37
2019-04-20T04:55:34.437Z,7.50
2019-04-20T04:57:55.843Z,7.70
2019-04-20T05:00:28.207Z,8.27
2019-04-20T05:03:01.097Z,7.40
2019-04-20T05:05:49.149Z,8.00
2019-04-20T05:08:06.307Z,10.73
2019-04-20T05:10:28.749Z,10.47
2019-04-20T05:12:58.745Z,9.78
2019-04-20T05:15:42.351Z,8.28
2019-04-20T05:18:18.400Z,7.70
2019-04-20T05:20:55.758Z,7.58
2019-04-20T05:23:19.299Z,7.53
2019-04-20T05:26:03.842Z,7.47
2019-04-20T05:28:27.832Z,7.58
2019-04-20T05:30:52.484Z,7.90
2019-04-20T05:33:30.379Z,8.13
2019-04-20T05:36:06.842Z,7.08
2019-04-20T05:38:45.758Z,7.65
2019-04-20T05:41:08.858Z,8.20
2019-04-20T05:43:36.302Z,8.00
2019-04-20T05:46:09.513Z,8.15
2019-04-20T05:48:48.904Z,7.97
2019-04-20T05:51:12.331Z,7.97
2019-04-20T05:53:47.484Z,7.65
2019-04-20T05:56:10.623Z,8.48
2019-04-20T05:58:45.426Z,8.48
2019-04-20T06:01:13.166Z,7.70
2019-04-20T06:03:44.101Z,8.55
2019-04-20T06:06:14.119Z,8.30
2019-04-20T06:11:14.631Z,8.83
2019-04-20T06:13:53.030Z,9.73
2019-04-20T06:16:29.812Z,8.73
2019-04-20T06:19:10.806Z,8.78
2019-04-20T06:21:36.600Z,9.38
2019-04-20T06:24:17.160Z,8.28
2019-04-20T06:26:56.566Z,9.35
2019-04-20T06:29:16.986Z,9.60
2019-04-20T06:31:45.480Z,9.73
2019-04-20T06:34:30.340Z,9.07
2019-04-20T06:39:30.889Z,10.53
2019-04-20T06:42:15.371Z,9.15
2019-04-20T06:44:32.082Z,8.93
2019-04-20T06:47:11.919Z,8.40
2019-04-20T06:49:40.639Z,8.30
2019-04-20T06:52:23.145Z,8.35
2019-04-20T06:54:58.189Z,8.90
2019-04-20T06:57:31.071Z,7.83
2019-04-20T07:00:05.841Z,8.70
2019-04-20T07:02:35.710Z,8.28
2019-04-20T07:05:08.571Z,8.55
2019-04-20T07:07:30.835Z,7.95
2019-04-20T07:12:35.673Z,8.38
2019-04-20T07:14:55.490Z,8.00
2019-04-20T07:20:06.630Z,8.50
2019-04-20T07:22:52.229Z,8.50
2019-04-20T07:25:24.514Z,8.63
2019-04-20T07:27:53.711Z,9.55
2019-04-20T07:30:17.734Z,9.33
2019-04-20T07:35:26.250Z,8.70
2019-04-20T07:40:25.251Z,8.60
2019-04-20T07:42:55.152Z,8.20
2019-04-20T07:45:30.355Z,8.18
2019-04-20T07:48:02.727Z,7.78
2019-04-20T07:50:21.483Z,7.03
2019-04-20T07:52:46.340Z,7.85
2019-04-20T07:57:53.686Z,6.47
2019-04-20T08:00:44.231Z,6.97
2019-04-20T08:03:25.460Z,7.00
2019-04-20T08:05:46.626Z,6.60
2019-04-20T08:08:22.743Z,5.53
2019-04-20T08:10:54.307Z,6.17
2019-04-20T08:13:35.407Z,5.80
2019-04-20T08:18:33.308Z,5.65
2019-04-20T08:20:58.532Z,5.42
2019-04-20T08:23:35.968Z,5.40
2019-04-20T08:25:47.082Z,4.17
2019-04-20T08:28:17.823Z,6.05
2019-04-20T08:31:15.599Z,5.47
2019-04-20T08:34:04.742Z,5.05
2019-04-20T08:36:25.735Z,5.40
2019-04-20T08:39:12.716Z,5.87
2019-04-20T08:41:16.930Z,5.50
2019-04-20T08:44:02.862Z,5.22
2019-04-20T08:46:20.487Z,4.08
2019-04-20T08:48:52.037Z,4.22
2019-04-20T08:51:19.939Z,4.10
2019-04-20T08:53:51.773Z,4.45
2019-04-20T08:56:14.300Z,4.02
2019-04-20T08:58:34.012Z,4.35
2019-04-20T09:01:05.431Z,4.17
2019-04-20T09:03:46.212Z,4.78
2019-04-20T09:06:14.565Z,4.83
2019-04-20T09:08:46.531Z,4.67
2019-04-20T09:11:19.608Z,5.03
2019-04-20T09:13:43.604Z,5.10
2019-04-20T09:16:08.762Z,4.60
2019-04-20T09:18:49.390Z,5.10
2019-04-20T09:21:23.372Z,4.67
2019-04-20T09:23:58.034Z,4.95
2019-04-20T09:26:32.817Z,5.05
2019-04-20T09:28:56.783Z,5.13
2019-04-20T09:31:46.941Z,4.58
2019-04-20T09:34:21.643Z,4.75
2019-04-20T09:36:51.341Z,4.97
2019-04-20T09:39:21.399Z,5.00
2019-04-20T09:42:01.661Z,5.00
2019-04-20T09:44:37.495Z,5.03
2019-04-20T09:47:03.296Z,4.78
2019-04-20T09:49:43.878Z,4.17
2019-04-20T09:52:31.336Z,4.60
2019-04-20T09:55:03.215Z,4.85
2019-04-20T09:57:38.094Z,4.50
2019-04-20T10:00:05.606Z,4.55
2019-04-20T10:02:27.597Z,5.03
2019-04-20T10:04:53.472Z,4.80
2019-04-20T10:07:25.808Z,5.67
2019-04-20T10:09:53.750Z,6.17
2019-04-20T10:12:23.911Z,6.08
2019-04-20T10:14:53.217Z,5.67
2019-04-20T10:17:23.463Z,5.53
2019-04-20T10:19:53.700Z,5.67
2019-04-20T10:22:22.607Z,6.50
2019-04-20T10:24:52.646Z,6.58
2019-04-20T10:27:21.438Z,7.05
2019-04-20T10:29:51.458Z,5.93
2019-04-20T10:32:21.469Z,6.30
2019-04-20T10:34:50.662Z,7.08
2019-04-20T10:37:21.718Z,6.92
2019-04-20T10:39:50.414Z,6.33
2019-04-20T10:42:20.361Z,6.20
2019-04-20T10:44:52.124Z,5.94
2019-04-20T10:47:19.474Z,5.62
2019-04-20T10:49:49.155Z,6.10
2019-04-20T10:52:17.931Z,6.10
2019-04-20T10:54:46.502Z,5.17
2019-04-20T10:57:15.562Z,6.10
2019-04-20T10:59:45.612Z,6.42
2019-04-20T11:02:14.309Z,6.27
2019-04-20T11:04:44.269Z,6.42
2019-04-20T11:07:14.557Z,6.65
2019-04-20T11:09:43.282Z,6.75
2019-04-20T11:12:12.447Z,6.70
2019-04-20T11:14:44.376Z,7.33
2019-04-20T11:17:12.254Z,7.15
2019-04-20T11:19:41.154Z,6.43
2019-04-20T11:22:10.406Z,6.80
2019-04-20T11:24:40.535Z,6.80
2019-04-20T11:27:09.978Z,7.03
2019-04-20T11:29:40.155Z,5.92
2019-04-20T11:32:10.262Z,6.30
2019-04-20T11:34:40.781Z,6.47
2019-04-20T11:37:10.715Z,6.22
2019-04-20T11:39:41.097Z,5.86
2019-04-20T11:42:10.056Z,5.92
2019-04-20T11:44:38.802Z,6.12
2019-04-20T11:47:08.467Z,6.60
2019-04-20T11:49:37.542Z,5.10
2019-04-20T11:52:07.635Z,4.70
2019-04-20T11:54:36.641Z,4.70
2019-04-20T11:57:05.280Z,5.70
2019-04-20T11:59:34.964Z,5.90
2019-04-20T12:02:10.807Z,6.45
2019-04-20T12:05:12.846Z,5.85
2019-04-20T12:07:33.694Z,6.00
2019-04-20T12:10:07.921Z,6.35
2019-04-20T12:12:40.000Z,5.58
2019-04-20T12:15:02.652Z,5.10
2019-04-20T12:17:31.484Z,4.35
2019-04-20T12:20:00.257Z,5.40
2019-04-20T12:22:28.825Z,5.67
2019-04-20T12:24:58.203Z,5.72
2019-04-20T12:27:27.322Z,6.50
2019-04-20T12:29:57.628Z,5.50
2019-04-20T12:32:28.227Z,5.70
2019-04-20T12:34:56.531Z,5.30
2019-04-20T12:37:25.151Z,4.78
2019-04-20T12:39:53.714Z,5.07
2019-04-20T12:42:23.099Z,5.60
2019-04-20T12:44:51.875Z,5.87
2019-04-20T12:47:21.608Z,5.62
2019-04-20T12:49:51.574Z,5.90
2019-04-20T12:52:20.713Z,5.47
2019-04-20T12:54:50.443Z,5.50
2019-04-20T12:57:19.094Z,4.97
2019-04-20T12:59:49.106Z,4.05
2019-04-20T13:02:17.907Z,4.50
2019-04-20T13:04:46.634Z,4.53
2019-04-20T13:07:15.672Z,5.03
2019-04-20T13:09:50.724Z,4.62
2019-04-20T13:12:34.317Z,5.03
2019-04-20T13:15:28.654Z,4.05
2019-04-20T13:17:58.926Z,4.10
2019-04-20T13:20:28.036Z,3.67
2019-04-20T13:22:57.218Z,4.20
2019-04-20T13:25:26.309Z,4.26
2019-04-20T13:27:55.027Z,4.33
2019-04-20T13:30:24.048Z,3.52
2019-04-20T13:36:58.589Z,3.02
2019-04-20T13:39:27.135Z,2.60
2019-04-20T13:42:04.519Z,2.65
2019-04-20T13:44:27.215Z,4.17
2019-04-20T13:46:56.722Z,5.25
2019-04-20T13:49:25.466Z,4.90
2019-04-20T13:51:54.883Z,5.30
2019-04-20T13:54:26.372Z,5.78
2019-04-20T13:56:55.926Z,5.62
2019-04-20T13:59:37.949Z,5.40
2019-04-20T14:02:08.872Z,5.50
2019-04-20T14:04:39.371Z,4.70
2019-04-20T14:07:09.077Z,4.50
2019-04-20T14:09:39.540Z,4.70
2019-04-20T14:12:19.791Z,4.12
2019-04-20T14:14:39.244Z,4.62
2019-04-20T14:17:07.974Z,4.50
2019-04-20T14:19:36.888Z,4.97
2019-04-20T14:22:06.130Z,4.20
2019-04-20T14:24:35.014Z,4.90
2019-04-20T14:27:03.779Z,4.45
2019-04-20T14:29:32.755Z,4.65
2019-04-20T14:32:03.738Z,5.17
2019-04-20T14:34:33.117Z,5.25
2019-04-20T14:37:02.540Z,5.12
2019-04-20T14:39:34.203Z,6.20
2019-04-20T14:42:02.896Z,5.17
2019-04-20T14:44:32.031Z,4.50
2019-04-20T14:47:00.735Z,5.70
2019-04-20T14:49:30.408Z,4.20
2019-04-20T14:52:00.980Z,4.77
2019-04-20T14:54:29.676Z,4.80
2019-04-20T14:56:59.193Z,5.17
2019-04-20T14:59:38.350Z,3.75
2019-04-20T15:02:08.699Z,4.10
2019-04-20T15:04:37.190Z,5.25
2019-04-20T15:07:06.698Z,4.20
2019-04-20T15:09:37.544Z,4.28
2019-04-20T15:12:06.742Z,4.50
2019-04-20T15:14:36.725Z,4.33
2019-04-20T15:17:06.796Z,4.85
2019-04-20T15:19:37.163Z,4.45
2019-04-20T15:22:25.228Z,4.28
2019-04-20T15:24:54.076Z,6.00
2019-04-20T15:27:24.404Z,5.10
2019-04-20T15:29:54.011Z,3.42
2019-04-20T15:32:22.976Z,3.80
2019-04-20T15:34:52.935Z,4.15
2019-04-20T15:37:23.269Z,3.90
2019-04-20T15:39:52.841Z,5.20
2019-04-20T15:42:23.345Z,4.65
2019-04-20T15:44:53.290Z,5.47
2019-04-20T15:47:22.469Z,5.65
2019-04-20T15:49:51.714Z,7.90
2019-04-20T15:52:27.500Z,7.35
2019-04-20T15:54:51.808Z,4.28
2019-04-20T15:57:25.255Z,5.60
2019-04-20T15:59:50.837Z,9.10
2019-04-20T16:02:29.741Z,5.10
2019-04-20T16:05:04.028Z,29.15
2019-04-20T16:07:40.698Z,10.00
2019-04-20T16:10:05.378Z,16.27
2019-04-20T16:12:35.094Z,6.65
2019-04-20T16:15:05.097Z,7.92
2019-04-20T16:17:39.208Z,19.67
2019-04-20T16:20:09.093Z,35.58
2019-04-20T16:22:36.306Z,55.92
2019-04-20T16:25:11.734Z,231.57
2019-04-20T16:27:41.585Z,401.70
2019-04-20T16:30:11.658Z,202.35
2019-04-20T16:32:40.701Z,72.40
2019-04-20T16:35:10.796Z,142.90
2019-04-20T16:37:40.290Z,61.15
2019-04-20T16:40:09.878Z,12.20
2019-04-20T16:42:42.111Z,6.40
2019-04-20T16:45:09.845Z,7.00
2019-04-20T16:47:40.146Z,9.50
2019-04-20T16:50:08.978Z,5.92
2019-04-20T16:52:38.877Z,5.33
2019-04-20T16:55:09.075Z,5.20
2019-04-20T16:57:39.621Z,5.55
2019-04-20T17:00:09.497Z,5.53
2019-04-20T17:02:38.266Z,5.30
2019-04-20T17:05:07.254Z,5.03
2019-04-20T17:07:37.661Z,5.65
2019-04-20T17:10:13.712Z,5.54
2019-04-20T17:12:43.795Z,5.67
2019-04-20T17:15:14.000Z,5.40
2019-04-20T17:17:43.352Z,5.67
2019-04-20T17:20:13.756Z,5.50
2019-04-20T17:22:42.680Z,4.50
2019-04-20T17:25:12.289Z,4.95
2019-04-20T17:27:46.723Z,6.20
2019-04-20T17:30:26.705Z,12.05
2019-04-20T17:33:00.271Z,66.22
2019-04-20T17:35:41.541Z,15.77
2019-04-20T17:38:00.552Z,8.48
2019-04-20T17:40:51.233Z,10.75
2019-04-20T17:43:08.353Z,5.65
2019-04-20T17:45:41.586Z,4.40
2019-04-20T17:48:17.712Z,8.35
2019-04-20T17:50:54.616Z,10.72
2019-04-20T17:53:17.684Z,4.93
2019-04-20T17:55:49.357Z,6.35
2019-04-20T17:58:20.741Z,4.40
2019-04-20T18:00:52.877Z,4.40
2019-04-20T18:03:57.635Z,4.12
2019-04-20T18:06:14.645Z,4.00
2019-04-20T18:08:45.515Z,4.55
2019-04-20T18:11:03.720Z,4.58
2019-04-20T18:13:29.143Z,4.83
2019-04-20T18:16:22.421Z,4.42
2019-04-20T18:18:46.539Z,4.30
2019-04-20T18:21:01.042Z,4.37
2019-04-20T18:23:36.370Z,4.40
2019-04-20T18:26:24.208Z,6.75
2019-04-20T18:28:54.839Z,4.67
2019-04-20T18:31:05.770Z,4.92
2019-04-20T18:33:35.659Z,4.67
2019-04-20T18:36:05.855Z,4.75
2019-04-20T18:38:39.351Z,5.12
2019-04-20T18:41:08.898Z,4.78
2019-04-20T18:43:43.921Z,4.60
2019-04-20T18:46:22.921Z,5.20
2019-04-20T18:48:57.029Z,5.67
2019-04-20T18:51:07.878Z,5.55
2019-04-20T18:53:42.912Z,5.50
2019-04-20T18:56:09.379Z,5.62
2019-04-20T18:58:38.379Z,5.55
2019-04-20T19:01:07.527Z,5.37
2019-04-20T19:03:41.926Z,5.78
2019-04-20T19:06:07.759Z,5.78
2019-04-20T19:08:40.497Z,5.75
2019-04-20T19:11:11.428Z,6.40
2019-04-20T19:13:45.887Z,5.87
2019-04-20T19:16:43.063Z,6.30
2019-04-20T19:19:22.054Z,5.28
2019-04-20T19:21:40.331Z,5.78
2019-04-20T19:24:14.178Z,5.74
2019-04-20T19:26:47.664Z,5.22
2019-04-20T19:29:22.382Z,5.58
2019-04-20T19:31:56.662Z,5.40
2019-04-20T19:34:31.036Z,5.47
2019-04-20T19:37:00.089Z,6.35
2019-04-20T19:39:31.323Z,5.47
2019-04-20T19:41:52.636Z,5.65
2019-04-20T19:44:25.037Z,5.50
2019-04-20T19:47:05.371Z,6.20
2019-04-20T19:49:25.040Z,6.17
2019-04-20T19:52:21.031Z,5.83
2019-04-20T19:54:34.543Z,6.15
2019-04-20T19:57:01.268Z,6.20
2019-04-20T19:59:26.334Z,6.30
2019-04-20T20:01:47.678Z,6.33
2019-04-20T20:04:17.576Z,6.53
2019-04-20T20:06:51.796Z,6.37
2019-04-20T20:09:18.296Z,5.72
2019-04-20T20:11:48.521Z,6.10
2019-04-20T20:14:25.563Z,6.10
2019-04-20T20:17:06.929Z,5.78
2019-04-20T20:19:32.324Z,6.15
2019-04-20T20:22:02.415Z,5.40
2019-04-20T20:24:19.604Z,5.90
2019-04-20T20:26:53.510Z,5.87
2019-04-20T20:29:28.260Z,5.97
2019-04-20T20:32:03.381Z,5.62
2019-04-20T20:34:28.023Z,5.90
2019-04-20T20:36:54.871Z,5.67
2019-04-20T20:39:27.671Z,6.12
2019-04-20T20:42:01.682Z,6.28
2019-04-20T20:44:31.798Z,6.72
2019-04-20T20:47:03.541Z,6.55
2019-04-20T20:49:39.655Z,6.92
2019-04-20T20:52:16.217Z,6.67
2019-04-20T20:54:36.404Z,6.80
2019-04-20T20:57:02.910Z,6.15
2019-04-20T20:59:35.848Z,6.95
2019-04-20T21:02:05.776Z,6.50
2019-04-20T21:04:23.835Z,6.45
2019-04-20T21:06:52.802Z,7.33
2019-04-20T21:09:24.135Z,7.05
2019-04-20T21:12:00.659Z,6.48
2019-04-20T21:14:29.157Z,7.22
2019-04-20T21:17:02.902Z,6.85
2019-04-20T21:19:44.041Z,6.92
2019-04-20T21:22:01.031Z,6.53
2019-04-20T21:24:31.383Z,6.70
2019-04-20T21:27:07.016Z,6.40
2019-04-20T21:29:37.838Z,6.47
2019-04-20T21:32:07.014Z,7.12
2019-04-20T21:34:31.155Z,6.90
2019-04-20T21:37:07.299Z,6.30
2019-04-20T21:39:39.868Z,6.50
2019-04-20T21:42:09.683Z,6.15
2019-04-20T21:44:35.596Z,6.03
2019-04-20T21:47:02.016Z,6.42
2019-04-20T21:49:42.340Z,6.37
2019-04-20T21:52:05.079Z,6.13
2019-04-20T21:54:31.965Z,6.00
2019-04-20T21:57:03.811Z,6.70
2019-04-20T21:59:38.617Z,6.80
2019-04-20T22:02:10.547Z,6.53
2019-04-20T22:04:31.733Z,6.20
2019-04-20T22:07:00.504Z,6.20
2019-04-20T22:09:34.452Z,5.70
2019-04-20T22:12:00.203Z,6.12
2019-04-20T22:14:32.275Z,5.80
2019-04-20T22:17:00.832Z,7.90
2019-04-20T22:20:02.619Z,6.83
2019-04-20T22:22:40.576Z,6.22
2019-04-20T22:25:03.902Z,7.20
2019-04-20T22:27:24.623Z,6.35
2019-04-20T22:29:50.208Z,7.20
2019-04-20T22:32:21.890Z,6.80
2019-04-20T22:34:56.828Z,6.73
2019-04-20T22:37:24.746Z,6.87
2019-04-20T22:39:56.087Z,7.07
2019-04-20T22:42:22.239Z,6.93
2019-04-20T22:44:56.642Z,6.97
2019-04-20T22:47:28.188Z,6.63
2019-04-20T22:50:12.907Z,7.20
2019-04-20T22:52:34.737Z,6.90
2019-04-20T22:55:12.446Z,7.10
2019-04-20T22:57:36.192Z,7.10
2019-04-20T23:00:02.684Z,7.53
2019-04-20T23:02:24.882Z,6.97
2019-04-20T23:04:53.348Z,7.25
2019-04-20T23:07:23.005Z,7.20
2019-04-20T23:09:56.020Z,6.87
2019-04-20T23:12:23.748Z,7.23
2019-04-20T23:14:52.411Z,7.03
2019-04-20T23:17:26.934Z,6.70
2019-04-20T23:19:56.385Z,6.77
2019-04-20T23:22:23.078Z,7.03
2019-04-20T23:24:53.196Z,6.87
2019-04-20T23:27:28.856Z,7.40
2019-04-20T23:29:53.255Z,6.23
2019-04-20T23:32:25.082Z,7.15
2019-04-20T23:35:01.986Z,6.83
2019-04-20T23:37:29.278Z,6.45
2019-04-20T23:39:54.344Z,6.93
2019-04-20T23:42:28.069Z,7.03
2019-04-20T23:45:17.082Z,6.57
2019-04-20T23:47:57.876Z,7.30
2019-04-20T23:50:41.000Z,7.13
2019-04-20T23:53:13.979Z,7.17
2019-04-20T23:55:23.906Z,6.80
2019-04-20T23:57:58.125Z,6.77
